Time;durP1;ratioP1;P1;durP2;ratioP2;P2;SDS_P1;SDS_P2;PMS_P1;PMS_P2;Temp;Humidity;BMP_temperature;BMP_pressure;BME280_temperature;BME280_humidity;BME280_pressure;Samples;Min_cycle;Max_cycle;Signal;HPM_P1;HPM_P2
2022/05/01 00:00:22;;;;;;;19.95;11.90;;;;;;;11.44;36.00;98157.94;10037118;29;20053;-80
2022/05/01 00:05:45;;;;;;;22.33;13.77;;;;;;;11.35;36.32;98141.94;10053058;29;20058;-79
2022/05/01 00:11:08;;;;;;;23.17;13.70;;;;;;;11.25;36.87;98143.28;10011820;29;20508;-79
2022/05/01 00:16:33;;;;;;;21.08;13.45;;;;;;;11.17;37.05;98149.00;10021466;29;20045;-80
2022/05/01 00:21:58;;;;;;;21.52;13.60;;;;;;;11.12;37.14;98148.00;10025404;29;20038;-79
2022/05/01 00:27:19;;;;;;;;;;;;;;;11.04;37.96;98141.09;10016279;29;20045;-79
2022/05/01 00:38:20;;;;;;;22.17;14.25;;;;;;;10.99;37.46;98136.53;10023716;29;20041;-79
2022/05/01 00:44:06;;;;;;;24.40;14.82;;;;;;;10.91;38.65;98142.28;10035653;29;20049;-79
2022/05/01 00:49:27;;;;;;;23.50;14.70;;;;;;;10.75;38.17;98141.09;10032351;29;20049;-80
2022/05/01 00:54:48;;;;;;;23.58;15.23;;;;;;;10.70;38.27;98142.13;10024689;29;20085;-80
2022/05/01 01:00:09;;;;;;;24.85;15.25;;;;;;;10.71;38.71;98135.19;10021661;29;20037;-80
2022/05/01 01:05:30;;;;;;;21.00;14.40;;;;;;;10.68;38.58;98139.91;10023125;29;20058;-79
2022/05/01 01:10:51;;;;;;;23.02;15.45;;;;;;;10.71;38.69;98138.75;10006827;29;20428;-80
2022/05/01 01:16:12;;;;;;;23.77;15.20;;;;;;;10.67;39.07;98126.53;10019197;29;20084;-79
2022/05/01 01:21:32;;;;;;;26.15;15.27;;;;;;;10.63;39.25;98127.00;9994226;29;20046;-80
2022/05/01 01:26:54;;;;;;;24.48;14.48;;;;;;;10.62;39.45;98124.78;10005522;29;20046;-80
2022/05/01 01:32:15;;;;;;;23.10;14.50;;;;;;;10.52;39.51;98125.53;10005350;29;20053;-79
2022/05/01 01:37:35;;;;;;;24.38;15.15;;;;;;;10.47;39.73;98134.16;9992904;29;20382;-80
2022/05/01 01:43:00;;;;;;;27.10;15.70;;;;;;;10.52;39.92;98135.94;10006149;29;20061;-80
2022/05/01 01:48:21;;;;;;;27.58;16.48;;;;;;;10.58;40.28;98125.22;9994533;29;20053;-79
2022/05/01 01:53:43;;;;;;;27.95;16.35;;;;;;;10.52;41.00;98136.69;9993197;29;20046;-79
2022/05/01 01:59:04;;;;;;;28.20;16.58;;;;;;;10.55;40.99;98131.97;10005281;29;20057;-80
2022/05/01 02:04:25;;;;;;;27.88;17.35;;;;;;;10.66;40.74;98133.44;9991585;29;20058;-79
2022/05/01 02:09:45;;;;;;;28.30;17.42;;;;;;;10.64;41.35;98128.47;9990052;29;20050;-79
2022/05/01 02:15:07;;;;;;;30.00;19.27;;;;;;;10.70;41.15;98125.38;10016723;29;20057;-80
2022/05/01 02:21:33;;;;;;;29.65;19.15;;;;;;;10.79;41.19;98121.84;10003999;29;20401;-80
2022/05/01 02:26:09;;;;;;;31.70;18.65;;;;;;;10.88;40.95;98118.31;10010081;29;20061;-79
2022/05/01 02:31:31;;;;;;;29.65;18.70;;;;;;;10.94;41.23;98110.38;10015501;29;20057;-80
2022/05/01 02:36:52;;;;;;;28.58;18.17;;;;;;;10.96;41.26;98121.69;10016028;29;20493;-79
2022/05/01 02:42:13;;;;;;;31.40;19.02;;;;;;;10.96;41.14;98124.47;9990901;29;20049;-79
2022/05/01 02:47:34;;;;;;;30.65;17.83;;;;;;;10.95;41.62;98119.50;10003176;29;20049;-80
2022/05/01 02:52:55;;;;;;;27.25;17.52;;;;;;;10.95;41.39;98117.44;10003181;29;20061;-80
2022/05/01 02:58:16;;;;;;;25.20;17.10;;;;;;;10.94;42.09;98115.22;10016483;29;20495;-80
2022/05/01 03:03:37;;;;;;;27.05;17.15;;;;;;;10.89;41.96;98114.19;9990340;29;20121;-79
2022/05/01 03:08:58;;;;;;;26.15;17.48;;;;;;;10.84;41.84;98112.44;10003212;29;20053;-78
2022/05/01 03:14:20;;;;;;;26.17;16.85;;;;;;;10.80;42.17;98104.50;10015866;29;20046;-80
2022/05/01 03:25:20;;;;;;;28.02;17.13;;;;;;;10.71;42.33;98107.28;10017047;29;20050;-79
2022/05/01 03:30:41;;;;;;;26.83;17.00;;;;;;;10.70;42.34;98114.94;9988546;29;20058;-80
2022/05/01 03:36:06;;;;;;;23.15;16.02;;;;;;;10.70;42.76;98114.19;10001739;29;20046;-79
2022/05/01 03:41:28;;;;;;;24.73;16.25;;;;;;;10.73;42.61;98113.03;10002700;29;20106;-80
2022/05/01 03:46:49;;;;;;;25.30;16.75;;;;;;;10.78;42.81;98115.53;10002188;29;20053;-80
2022/05/01 03:52:10;;;;;;;22.88;16.40;;;;;;;10.83;42.84;98113.78;10001928;29;20061;-79
2022/05/01 03:57:32;;;;;;;24.73;15.90;;;;;;;10.87;42.93;98111.25;10013817;29;20370;-80
2022/05/01 04:02:53;;;;;;;24.42;16.10;;;;;;;10.92;42.84;98107.44;9988279;29;20493;-80
2022/05/01 04:08:14;;;;;;;23.98;15.00;;;;;;;10.96;42.95;98107.72;10013840;29;20482;-79
2022/05/01 04:13:35;;;;;;;25.17;14.25;;;;;;;11.06;42.68;98113.31;9993004;29;20050;-79
2022/05/01 04:18:56;;;;;;;22.23;14.43;;;;;;;11.13;42.95;98115.94;9995604;29;20054;-79
2022/05/01 04:24:17;;;;;;;23.33;16.05;;;;;;;11.18;42.95;98120.47;10032031;29;20054;-82
2022/05/01 04:29:38;;;;;;;26.25;15.25;;;;;;;11.23;42.75;98115.94;10019060;29;20077;-80
2022/05/01 04:34:59;;;;;;;25.92;15.30;;;;;;;11.35;42.60;98113.25;10018734;29;20382;-80
2022/05/01 04:40:20;;;;;;;25.85;15.38;;;;;;;11.51;42.63;98128.38;10019521;29;20070;-79
2022/05/01 04:46:14;;;;;;;21.73;15.10;;;;;;;11.62;42.89;98138.94;10007072;29;20065;-79
2022/05/01 04:51:35;;;;;;;24.45;15.80;;;;;;;11.70;42.69;98131.09;10021042;29;20053;-79
2022/05/01 04:57:05;;;;;;;26.48;16.05;;;;;;;11.85;42.69;98141.22;10017743;29;20053;-81
2022/05/01 05:02:56;;;;;;;25.35;15.20;;;;;;;11.95;42.62;98143.97;10025061;29;20147;-81
2022/05/01 05:13:58;;;;;;;20.90;14.13;;;;;;;12.31;42.16;98152.03;10032553;29;20046;-81
2022/05/01 05:19:18;;;;;;;21.45;14.45;;;;;;;12.65;41.76;98149.34;10019629;29;20405;-82
2022/05/01 05:24:42;;;;;;;23.17;14.00;;;;;;;13.09;41.36;98160.63;10018938;29;20403;-80
2022/05/01 05:30:03;;;;;;;23.52;13.65;;;;;;;13.45;41.09;98167.84;10020284;29;20050;-81
2022/05/01 05:35:28;;;;;;;22.05;14.10;;;;;;;13.92;40.48;98172.81;10021233;29;20102;-81
2022/05/01 05:40:49;;;;;;;20.95;13.70;;;;;;;14.22;40.09;98179.53;10033400;29;20050;-81
2022/05/01 05:46:10;;;;;;;21.42;13.90;;;;;;;14.65;39.43;98187.72;10023524;29;20067;-80
2022/05/01 05:51:31;;;;;;;21.75;13.73;;;;;;;15.26;39.29;98191.22;10024659;29;20046;-79
2022/05/01 05:56:52;;;;;;;18.90;13.15;;;;;;;16.64;37.87;98190.16;10002249;29;20062;-81
2022/05/01 06:02:12;;;;;;;19.40;13.15;;;;;;;18.25;36.93;98186.56;9996850;29;20061;-84
2022/05/01 06:07:33;;;;;;;18.35;13.13;;;;;;;20.58;34.30;98186.69;9996348;29;20060;-83
2022/05/01 06:12:54;;;;;;;17.92;12.30;;;;;;;20.98;32.72;98183.06;9996569;29;20088;-82
2022/05/01 06:18:15;;;;;;;20.25;12.73;;;;;;;21.10;31.14;98191.97;9983489;29;20427;-80
2022/05/01 06:23:36;;;;;;;19.33;12.00;;;;;;;21.18;30.78;98200.78;9995962;29;20046;-79
2022/05/01 06:28:59;;;;;;;17.70;11.55;;;;;;;20.11;31.07;98194.88;9983408;29;20562;-76
2022/05/01 06:34:19;;;;;;;14.30;10.38;;;;;;;19.26;31.32;98203.56;9995144;29;20061;-76
2022/05/01 06:39:40;;;;;;;14.32;10.10;;;;;;;19.48;31.83;98195.97;9982958;29;20053;-79
2022/05/01 06:45:01;;;;;;;16.45;9.98;;;;;;;21.87;31.96;98197.28;9982597;29;20421;-80
2022/05/01 06:50:22;;;;;;;14.57;9.80;;;;;;;25.94;28.45;98212.13;9969956;29;20109;-80
2022/05/01 06:55:43;;;;;;;14.68;10.25;;;;;;;27.45;25.00;98210.25;10007715;29;20401;-80
2022/05/01 07:01:09;;;;;;;13.35;9.20;;;;;;;27.97;23.68;98203.47;9996340;29;20057;-80
2022/05/01 07:06:30;;;;;;;11.68;9.05;;;;;;;27.84;23.28;98206.28;9982234;29;20113;-80
2022/05/01 07:11:51;;;;;;;14.50;9.13;;;;;;;28.03;22.02;98215.00;9994625;29;20045;-80
2022/05/01 07:17:12;;;;;;;13.43;9.15;;;;;;;27.04;22.03;98212.78;9981959;29;20038;-80
2022/05/01 07:22:33;;;;;;;13.15;9.00;;;;;;;26.47;21.77;98215.00;9994408;29;20048;-80
2022/05/01 07:27:53;;;;;;;13.55;8.00;;;;;;;24.91;21.38;98204.72;10007102;29;20050;-80
2022/05/01 07:33:14;;;;;;;10.75;8.00;;;;;;;23.81;21.60;98205.31;9981447;29;20393;-80
2022/05/01 07:38:35;;;;;;;11.75;8.18;;;;;;;22.88;22.11;98209.44;10006993;29;20114;-79
2022/05/01 07:43:56;;;;;;;13.63;8.52;;;;;;;22.21;22.98;98206.16;9994273;29;20102;-79
2022/05/01 07:49:16;;;;;;;15.07;8.93;;;;;;;21.87;23.27;98200.13;10000175;29;20050;-80
2022/05/01 07:54:37;;;;;;;15.25;9.05;;;;;;;21.88;23.53;98201.56;10001456;29;20049;-79
2022/05/01 07:59:57;;;;;;;13.52;8.88;;;;;;;22.00;23.46;98189.84;10001103;29;20046;-79
2022/05/01 08:05:23;;;;;;;12.05;8.57;;;;;;;22.34;23.40;98190.16;10000945;29;20057;-86
2022/05/01 08:10:44;;;;;;;12.05;7.80;;;;;;;22.56;23.55;98190.75;10001758;29;20053;-80
2022/05/01 08:16:04;;;;;;;13.63;8.02;;;;;;;22.74;23.09;98184.13;10000503;29;20049;-79
2022/05/01 08:21:27;;;;;;;12.23;7.97;;;;;;;23.21;23.65;98188.19;10012763;29;20053;-79
2022/05/01 08:26:48;;;;;;;9.40;7.38;;;;;;;24.43;22.51;98193.81;10000951;29;20049;-79
2022/05/01 08:32:10;;;;;;;12.50;7.67;;;;;;;24.36;22.50;98180.84;10000329;29;20054;-78
2022/05/01 08:37:30;;;;;;;10.30;7.53;;;;;;;24.36;22.17;98177.97;9986985;29;20401;-79
2022/05/01 08:42:51;;;;;;;12.65;7.93;;;;;;;24.55;22.39;98174.06;9986791;29;20049;-78
2022/05/01 08:48:12;;;;;;;10.30;6.97;;;;;;;24.79;21.83;98177.38;9999467;29;20053;-79
2022/05/01 08:53:33;;;;;;;10.70;6.53;;;;;;;26.66;22.75;98173.72;9986720;29;20108;-78
2022/05/01 08:58:53;;;;;;;12.48;7.20;;;;;;;28.51;20.09;98171.47;9998185;29;20098;-79
2022/05/01 09:04:14;;;;;;;10.97;6.77;;;;;;;28.26;20.29;98167.75;9986406;29;20066;-80
2022/05/01 09:09:36;;;;;;;9.10;6.00;;;;;;;27.65;20.17;98162.41;10011363;29;20046;-81
2022/05/01 09:14:56;;;;;;;8.20;5.45;;;;;;;28.67;18.83;98162.91;9985764;29;20435;-80
2022/05/01 09:20:18;;;;;;;10.63;5.38;;;;;;;27.21;18.19;98164.94;9998395;29;20050;-79
2022/05/01 09:25:38;;;;;;;9.77;5.90;;;;;;;25.13;18.58;98168.00;9997879;29;20046;-78
2022/05/01 09:30:59;;;;;;;11.43;5.53;;;;;;;23.70;19.17;98161.59;9997884;29;20058;-78
2022/05/01 09:36:33;;;;;;;7.60;4.97;;;;;;;22.62;20.05;98161.75;9997630;29;20042;-78
2022/05/01 09:41:54;;;;;;;7.70;5.25;;;;;;;21.82;20.33;98158.78;9984851;29;20050;-78
2022/05/01 09:47:33;;;;;;;8.43;4.70;;;;;;;21.08;21.16;98163.53;9984769;29;20413;-78
2022/05/01 09:53:01;;;;;;;7.07;4.43;;;;;;;20.60;21.19;98162.63;9997050;29;20053;-78
2022/05/01 09:58:23;;;;;;;8.48;4.93;;;;;;;20.23;21.29;98161.28;10009398;29;20046;-78
2022/05/01 10:03:48;;;;;;;4.80;3.47;;;;;;;19.77;21.57;98163.84;9996543;29;20061;-78
2022/05/01 10:09:09;;;;;;;5.07;3.10;;;;;;;19.54;22.27;98153.03;9983950;29;20046;-77
2022/05/01 10:14:30;;;;;;;5.07;3.05;;;;;;;19.61;22.21;98155.47;9996544;29;20124;-76
2022/05/01 10:19:51;;;;;;;6.85;2.88;;;;;;;19.65;22.10;98152.78;9983462;29;20038;-76
2022/05/01 10:25:16;;;;;;;4.18;2.70;;;;;;;19.80;22.45;98150.50;9995683;29;20050;-76
2022/05/01 10:36:25;;;;;;;7.18;3.05;;;;;;;20.26;22.32;98146.53;9987726;29;20042;-76
2022/05/01 10:41:46;;;;;;;4.28;2.72;;;;;;;20.91;22.35;98130.34;9983233;29;20508;-78
2022/05/01 10:47:36;;;;;;;7.80;3.42;;;;;;;21.19;21.97;98133.38;9995031;29;20049;-77
2022/05/01 10:53:08;;;;;;;4.57;2.70;;;;;;;21.74;22.07;98115.94;9919499;29;20522;-78
2022/05/01 10:58:32;;;;;;;5.55;2.80;;;;;;;22.26;21.36;98116.00;9914705;29;20122;-78
2022/05/01 11:03:54;;;;;;;8.95;3.72;;;;;;;22.38;21.24;98104.94;9916443;29;20125;-78
2022/05/01 11:09:19;;;;;;;5.18;3.33;;;;;;;22.63;21.25;98112.00;9916439;29;20051;-78
2022/05/01 11:14:53;;;;;;;7.07;3.20;;;;;;;22.96;20.60;98107.88;9916283;29;20504;-78
2022/05/01 11:20:13;;;;;;;7.13;4.03;;;;;;;22.88;20.69;98113.38;9933839;29;20062;-78
2022/05/01 11:25:42;;;;;;;5.78;3.60;;;;;;;22.85;20.66;98097.63;10020705;29;20154;-78
2022/05/01 11:31:03;;;;;;;10.70;4.18;;;;;;;22.82;21.10;98104.66;10007505;29;20054;-78
2022/05/01 11:37:02;;;;;;;7.28;4.88;;;;;;;22.85;20.96;98103.31;9994206;29;20129;-78
2022/05/01 11:42:26;;;;;;;8.10;4.78;;;;;;;22.73;21.14;98100.16;10006633;29;20077;-78
2022/05/01 11:47:47;;;;;;;7.95;4.78;;;;;;;22.71;21.48;98094.41;10006402;29;20050;-78
2022/05/01 11:53:31;;;;;;;7.82;4.25;;;;;;;22.47;21.54;98095.22;9993925;29;20133;-78
2022/05/01 12:04:37;;;;;;;6.50;3.92;;;;;;;22.68;21.74;98090.06;10008494;29;19931;-78
2022/05/01 12:09:58;;;;;;;7.55;4.13;;;;;;;22.54;21.52;98082.63;9993767;29;20054;-78
2022/05/01 12:15:19;;;;;;;9.45;4.05;;;;;;;22.26;21.78;98084.72;9993724;29;20054;-78
2022/05/01 12:20:40;;;;;;;9.05;4.53;;;;;;;22.06;21.94;98067.81;10006108;29;20042;-78
2022/05/01 12:26:01;;;;;;;7.30;4.70;;;;;;;21.89;21.96;98072.31;10019760;29;20046;-78
2022/05/01 12:31:21;;;;;;;7.57;4.55;;;;;;;21.77;22.58;98066.28;9993265;29;20046;-78
2022/05/01 12:36:42;;;;;;;6.30;4.55;;;;;;;21.84;22.66;98059.41;10012114;29;20050;-78
2022/05/01 12:47:48;;;;;;;8.07;4.50;;;;;;;22.10;22.85;98061.53;10011792;29;20042;-78
2022/05/01 12:53:28;;;;;;;6.23;4.20;;;;;;;22.23;23.22;98054.78;9999441;29;20401;-78
2022/05/01 12:58:50;;;;;;;7.90;4.22;;;;;;;22.29;22.74;98052.09;9999252;29;20451;-78
2022/05/01 13:04:21;;;;;;;5.93;3.90;;;;;;;22.37;22.87;98040.22;9998592;29;20061;-78
2022/05/01 13:09:51;;;;;;;7.13;4.85;;;;;;;22.62;22.76;98033.03;9998980;29;20052;-78
2022/05/01 13:15:12;;;;;;;7.80;4.50;;;;;;;22.61;22.90;98040.84;9998418;29;20079;-77
2022/05/01 13:20:33;;;;;;;5.95;4.00;;;;;;;22.52;22.75;98034.22;9998317;29;20094;-78
2022/05/01 13:25:55;;;;;;;8.10;4.38;;;;;;;22.31;22.99;98031.53;10010900;29;20050;-78
2022/05/01 13:31:16;;;;;;;6.95;4.65;;;;;;;22.07;22.65;98023.09;10024233;29;20371;-78
2022/05/01 13:36:39;;;;;;;5.35;3.83;;;;;;;21.85;23.01;98015.38;9998064;29;20054;-77
2022/05/01 13:47:40;;;;;;;6.88;3.90;;;;;;;21.31;23.12;98018.09;10011991;29;20053;-77
2022/05/01 13:53:02;;;;;;;6.80;3.38;;;;;;;21.27;23.51;98003.78;9997563;29;20468;-77
2022/05/01 13:58:24;;;;;;;5.53;3.30;;;;;;;21.31;23.22;98001.06;9997589;29;20045;-77
2022/05/01 14:03:45;;;;;;;6.40;3.65;;;;;;;21.37;23.28;97992.72;9996497;29;20061;-78
2022/05/01 14:09:06;;;;;;;4.75;3.08;;;;;;;21.40;23.41;97988.56;10009344;29;20045;-75
2022/05/01 14:14:27;;;;;;;5.47;3.38;;;;;;;21.42;23.32;97990.72;9996242;29;20045;-75
2022/05/01 14:19:48;;;;;;;5.55;2.90;;;;;;;21.30;23.25;97987.53;9995930;29;20110;-78
2022/05/01 14:25:09;;;;;;;7.30;3.53;;;;;;;21.38;23.42;97979.97;9995989;29;20050;-77
2022/05/01 14:30:30;;;;;;;5.45;3.30;;;;;;;21.39;23.19;97975.75;9995619;29;20046;-79
2022/05/01 14:35:52;;;;;;;5.30;2.90;;;;;;;21.28;23.07;97981.81;9983064;29;20053;-80
2022/05/01 14:41:16;;;;;;;5.72;3.28;;;;;;;21.14;23.20;97979.97;9982806;29;20057;-79
2022/05/01 14:46:46;;;;;;;7.60;3.15;;;;;;;20.94;23.41;97973.69;9995213;29;20046;-79
2022/05/01 14:52:11;;;;;;;3.65;2.35;;;;;;;20.97;23.08;97974.47;10007821;29;20054;-78
2022/05/01 14:57:34;;;;;;;5.13;2.70;;;;;;;21.10;23.45;97968.50;9994918;29;20045;-80
2022/05/01 15:08:29;;;;;;;;;;;;;;;21.13;23.89;97960.75;9985394;29;20050;-81
2022/05/01 15:13:49;;;;;;;6.15;3.00;;;;;;;21.14;23.17;97967.91;10007297;29;20295;-82
2022/05/01 15:19:37;;;;;;;4.50;2.50;;;;;;;21.09;23.32;97966.31;9981730;29;20046;-82
2022/05/01 15:25:16;;;;;;;5.07;2.45;;;;;;;21.12;23.02;97971.38;10008581;29;20554;-83
2022/05/01 15:30:47;;;;;;;5.45;1.80;;;;;;;21.09;23.21;97969.16;10007000;29;20050;-83
2022/05/01 15:36:22;;;;;;;4.35;2.10;;;;;;;21.07;23.02;97969.09;9982202;29;20498;-83
2022/05/01 15:41:53;;;;;;;9.23;2.17;;;;;;;20.92;23.03;97964.38;9981414;29;20050;-81
2022/05/01 15:47:16;;;;;;;3.95;2.00;;;;;;;20.88;23.22;97967.84;9994748;29;20046;-82
2022/05/01 15:58:17;;;;;;;7.75;2.03;;;;;;;20.80;23.26;97971.13;9998570;29;20413;-79
2022/05/01 16:03:38;;;;;;;4.50;1.95;;;;;;;20.70;23.51;97972.94;9993232;29;20073;-82
2022/05/01 16:08:59;;;;;;;4.50;1.70;;;;;;;20.56;23.53;97965.44;9997759;29;20046;-82
2022/05/01 16:14:23;;;;;;;6.35;2.45;;;;;;;20.36;23.25;97959.06;10000758;29;20057;-82
2022/05/01 16:20:01;;;;;;;8.23;2.10;;;;;;;20.21;23.60;97960.00;9987868;29;20050;-79
2022/05/01 16:25:22;;;;;;;4.32;1.83;;;;;;;20.06;23.47;97961.63;10014741;29;20409;-83
2022/05/01 16:30:47;;;;;;;7.25;2.00;;;;;;;19.89;23.58;97960.38;9987495;29;20046;-83
2022/05/01 16:36:08;;;;;;;3.90;2.05;;;;;;;19.79;23.52;97967.78;10000551;29;20054;-82
2022/05/01 16:41:29;;;;;;;3.92;2.17;;;;;;;19.64;23.68;97958.78;9987098;29;20053;-77
2022/05/01 16:46:54;;;;;;;4.70;2.08;;;;;;;19.53;23.96;97959.78;9988465;29;20451;-81
2022/05/01 16:52:15;;;;;;;5.30;2.28;;;;;;;19.48;24.21;97969.50;9986499;29;20114;-83
2022/05/01 16:57:36;;;;;;;6.60;3.10;;;;;;;19.42;24.30;97967.19;9986383;29;20085;-83
2022/05/01 17:03:18;;;;;;;4.00;2.65;;;;;;;19.24;24.54;97974.28;9998974;29;20050;-85
2022/05/01 17:09:00;;;;;;;6.63;2.50;;;;;;;18.99;24.59;97978.28;10011079;29;20103;-82
2022/05/01 17:14:38;;;;;;;4.82;2.47;;;;;;;18.78;25.18;97976.78;10024792;29;20404;-85
2022/05/01 17:20:07;;;;;;;6.57;2.80;;;;;;;18.64;25.17;97974.09;9997678;29;20102;-81
2022/05/01 17:25:56;;;;;;;5.32;2.50;;;;;;;18.48;25.11;97977.00;9998634;29;20054;-85
2022/05/01 17:31:17;;;;;;;5.97;3.55;;;;;;;18.36;25.17;97982.16;9987694;29;20513;-84
2022/05/01 17:36:38;;;;;;;5.82;3.17;;;;;;;18.25;25.59;97980.31;9985232;29;20442;-83
2022/05/01 17:42:00;;;;;;;8.07;3.47;;;;;;;18.19;25.60;97982.88;9997742;29;20042;-85
2022/05/01 17:47:21;;;;;;;8.15;4.93;;;;;;;18.04;28.43;97995.66;10009907;29;20046;-85
2022/05/01 17:52:42;;;;;;;6.85;4.55;;;;;;;17.61;27.63;97999.47;10010117;29;20054;-79
2022/05/01 17:58:04;;;;;;;7.68;4.47;;;;;;;17.21;29.30;98004.03;10009549;29;20046;-85
2022/05/01 18:15:51;;;;;;;;;;;;;;;16.36;36.60;98014.78;10207710;23;20049;-80
2022/05/01 18:21:41;;;;;;;8.10;4.70;;;;;;;16.25;35.53;98018.47;10116634;24;20401;-79
2022/05/01 18:27:04;;;;;;;6.43;4.60;;;;;;;16.11;36.16;98026.91;10060458;29;20109;-78
2022/05/01 18:32:34;;;;;;;5.95;5.07;;;;;;;16.00;37.08;98031.31;10045036;29;20053;-79
2022/05/01 18:38:03;;;;;;;10.32;5.40;;;;;;;15.90;37.44;98030.78;10305884;24;20052;-80
2022/05/01 18:43:26;;;;;;;7.65;5.53;;;;;;;15.80;38.47;98035.16;10946991;24;20064;-80
2022/05/01 18:48:47;;;;;;;6.38;4.68;;;;;;;15.79;38.49;98030.91;10716378;23;20052;-80
2022/05/01 19:06:57;;;;;;;6.80;5.13;;;;;;;15.57;40.34;98042.44;10363518;23;20080;-80
2022/05/01 19:18:35;;;;;;;8.50;5.32;;;;;;;15.52;40.98;98052.00;10028068;29;20071;-79
2022/05/01 19:30:10;;;;;;;10.15;5.55;;;;;;;15.50;41.43;98056.78;11166795;23;20051;-79
2022/05/01 19:35:36;;;;;;;6.40;5.15;;;;;;;15.50;41.61;98054.72;11513639;23;20016;-78
2022/05/01 19:41:07;;;;;;;8.52;5.57;;;;;;;15.56;41.81;98052.22;10108830;29;20041;-79
2022/05/01 20:11:31;;;;;;;6.93;5.45;;;;;;;15.46;42.93;98060.13;11658027;23;20049;-79
2022/05/01 20:17:03;;;;;;;7.47;4.82;;;;;;;15.46;43.28;98054.50;11227463;23;20066;-79
2022/05/01 23:13:12;;;;;;;10.57;3.75;;;;;;;14.12;38.35;97993.66;11931239;24;20061;-80
2022/05/01 23:18:33;;;;;;;6.75;3.72;;;;;;;13.98;38.16;97994.28;10082423;29;20082;-80
2022/05/01 23:23:55;;;;;;;7.63;4.10;;;;;;;13.90;38.38;97991.03;10082138;29;20037;-81
2022/05/01 23:46:19;;;;;;;11.40;4.50;;;;;;;13.70;38.68;97992.63;12705955;23;20021;-82
2022/05/01 23:51:40;;;;;;;7.13;4.47;;;;;;;13.66;38.57;97992.41;12692002;23;20018;-80
2022/05/01 23:57:01;;;;;;;8.75;4.15;;;;;;;13.64;38.26;97984.59;12711757;23;20033;-82
